createdAt,value
2023-02-14T00:06:20.857Z,45.20
2023-02-14T00:16:33.844Z,44.60
2023-02-14T00:26:46.868Z,44.00
2023-02-14T00:36:59.843Z,43.70
2023-02-14T00:47:12.873Z,47.00
2023-02-14T00:57:25.868Z,48.80
2023-02-14T01:07:38.869Z,44.60
2023-02-14T01:17:51.870Z,41.80
2023-02-14T01:28:04.918Z,38.50
2023-02-14T01:38:17.879Z,38.40
2023-02-14T01:48:30.929Z,36.80
2023-02-14T01:58:45.883Z,38.40
2023-02-14T02:09:18.934Z,36.00
2023-02-14T02:19:52.948Z,38.30
2023-02-14T02:30:23.019Z,35.10
2023-02-14T02:40:35.927Z,32.00
2023-02-14T02:51:09.972Z,36.10
2023-02-14T03:01:38.976Z,35.85
2023-02-14T03:12:00.960Z,34.60
2023-02-14T03:22:44.961Z,36.20
2023-02-14T03:33:13.997Z,36.50
2023-02-14T03:43:30.948Z,33.50
2023-02-14T03:53:47.007Z,34.50
2023-02-14T04:04:09.007Z,34.70
2023-02-14T04:14:22.004Z,35.30
2023-02-14T04:24:35.035Z,32.00
2023-02-14T04:34:47.989Z,33.60
2023-02-14T04:45:03.768Z,35.10
2023-02-14T04:55:17.999Z,34.10
2023-02-14T05:05:37.053Z,35.50
2023-02-14T05:15:50.058Z,32.30
2023-02-14T05:26:03.063Z,34.00
2023-02-14T05:36:17.035Z,32.80
2023-02-14T05:46:30.057Z,35.60
2023-02-14T05:56:43.064Z,34.60
2023-02-14T06:06:56.087Z,35.80
2023-02-14T06:17:09.106Z,34.50
2023-02-14T06:27:22.097Z,46.80
2023-02-14T06:37:35.087Z,40.50
2023-02-14T06:47:48.121Z,36.70
2023-02-14T06:58:01.088Z,37.90
2023-02-14T07:08:16.137Z,34.20
2023-02-14T07:18:29.094Z,36.10
2023-02-14T07:28:44.857Z,51.50
2023-02-14T07:38:58.108Z,42.30
2023-02-14T07:49:11.160Z,33.00
2023-02-14T07:59:25.930Z,34.10
2023-02-14T08:09:39.164Z,34.90
2023-02-14T08:19:52.139Z,36.90
2023-02-14T08:30:12.226Z,30.00
2023-02-14T08:40:25.140Z,34.00
2023-02-14T08:50:38.162Z,33.60
2023-02-14T09:00:51.265Z,34.30
2023-02-14T09:11:04.270Z,39.00
2023-02-14T09:21:32.161Z,34.00
2023-02-14T09:31:45.287Z,33.00
2023-02-14T09:42:31.196Z,33.10
2023-02-14T09:52:43.220Z,26.70
2023-02-14T10:03:05.197Z,26.70
2023-02-14T10:13:20.248Z,29.70
2023-02-14T10:23:57.215Z,29.00
2023-02-14T10:34:27.264Z,29.60
2023-02-14T10:45:10.213Z,28.60
2023-02-14T10:55:32.757Z,25.70
2023-02-14T11:05:55.274Z,25.60
2023-02-14T11:16:10.243Z,26.40
2023-02-14T11:26:33.305Z,27.80
2023-02-14T11:36:50.248Z,24.40
2023-02-14T11:47:06.456Z,23.10
2023-02-14T11:57:25.260Z,29.00
2023-02-14T12:07:44.338Z,25.40
2023-02-14T12:18:01.282Z,25.30
2023-02-14T12:28:19.358Z,19.70
2023-02-14T12:38:58.323Z,18.60
2023-02-14T12:49:44.326Z,20.30
2023-02-14T13:00:20.349Z,24.30
2023-02-14T13:10:33.371Z,24.00
2023-02-14T13:20:49.358Z,21.60
2023-02-14T13:31:03.763Z,21.50
2023-02-14T13:41:17.368Z,21.70
2023-02-14T13:51:30.376Z,23.60
2023-02-14T14:01:48.437Z,21.90
2023-02-14T14:12:01.388Z,20.30
2023-02-14T14:22:24.397Z,20.80
2023-02-14T14:32:39.369Z,20.60
2023-02-14T14:42:52.421Z,27.10
2023-02-14T14:53:08.398Z,22.40
2023-02-14T15:03:29.443Z,24.20
2023-02-14T15:14:01.421Z,27.20
2023-02-14T15:24:20.453Z,22.70
2023-02-14T15:34:40.464Z,27.40
2023-02-14T15:44:53.456Z,30.30
2023-02-14T15:55:06.461Z,34.70
2023-02-14T16:05:34.463Z,52.60
2023-02-14T16:15:52.519Z,57.60
2023-02-14T16:26:05.468Z,43.60
2023-02-14T16:36:27.464Z,49.30
2023-02-14T16:46:43.512Z,44.20
2023-02-14T16:57:09.460Z,38.60
2023-02-14T17:07:28.530Z,41.40
2023-02-14T17:17:43.492Z,63.90
2023-02-14T17:27:57.528Z,66.20
2023-02-14T17:38:10.541Z,75.60
2023-02-14T17:48:23.541Z,88.40
2023-02-14T17:58:36.523Z,84.00
2023-02-14T18:09:05.574Z,83.90
2023-02-14T18:19:20.542Z,98.80
2023-02-14T18:29:33.711Z,88.80
2023-02-14T18:39:46.563Z,141.80
2023-02-14T18:49:59.669Z,99.30
2023-02-14T19:00:14.559Z,68.90
2023-02-14T19:10:27.680Z,56.30
2023-02-14T19:20:40.604Z,59.90
2023-02-14T19:30:53.749Z,68.70
2023-02-14T19:41:06.575Z,65.30
2023-02-14T19:51:29.864Z,83.60
2023-02-14T20:01:46.629Z,75.50
2023-02-14T20:12:03.865Z,64.90
2023-02-14T20:22:16.647Z,67.00
2023-02-14T20:32:29.839Z,67.90
2023-02-14T20:42:42.639Z,76.10
2023-02-14T20:52:55.740Z,72.80
2023-02-14T21:03:08.700Z,69.40
2023-02-14T21:13:21.638Z,67.90
2023-02-14T21:23:34.785Z,66.90
2023-02-14T21:33:47.676Z,73.70
2023-02-14T21:44:02.730Z,100.50
2023-02-14T21:54:23.692Z,131.10
2023-02-14T22:04:42.725Z,155.20
2023-02-14T22:14:54.685Z,151.60
2023-02-14T22:25:07.741Z,124.80
2023-02-14T22:35:20.686Z,124.50
2023-02-14T22:45:33.733Z,123.80
2023-02-14T22:55:47.715Z,106.50
2023-02-14T23:06:13.782Z,83.80
2023-02-14T23:16:44.721Z,89.00
2023-02-14T23:26:57.772Z,54.90
2023-02-14T23:37:10.736Z,103.40
2023-02-14T23:47:23.768Z,71.00
2023-02-14T23:57:36.749Z,87.60
